createdAt,value
2022-11-17T00:01:30.831Z,98.55
2022-11-17T00:03:34.700Z,98.79
2022-11-17T00:05:38.729Z,98.63
2022-11-17T00:07:44.023Z,98.66
2022-11-17T00:09:47.514Z,98.95
2022-11-17T00:12:09.184Z,98.42
2022-11-17T00:14:30.300Z,98.46
2022-11-17T00:16:35.110Z,97.83
2022-11-17T00:18:56.326Z,97.47
2022-11-17T00:21:17.428Z,97.88
2022-11-17T00:23:20.911Z,97.70
2022-11-17T00:25:24.440Z,97.53
2022-11-17T00:27:27.878Z,97.07
2022-11-17T00:29:32.303Z,96.78
2022-11-17T00:31:54.963Z,96.60
2022-11-17T00:34:07.349Z,96.43
2022-11-17T00:36:10.949Z,96.50
2022-11-17T00:38:17.317Z,96.28
2022-11-17T00:40:20.806Z,96.48
2022-11-17T00:42:24.340Z,96.10
2022-11-17T00:44:28.107Z,95.82
2022-11-17T00:46:31.913Z,95.87
2022-11-17T00:48:36.819Z,95.81
2022-11-17T00:50:40.314Z,95.78
2022-11-17T00:52:43.841Z,95.59
2022-11-17T00:54:47.265Z,95.40
2022-11-17T00:56:50.737Z,95.17
2022-11-17T00:58:54.766Z,94.99
2022-11-17T01:00:58.267Z,95.35
2022-11-17T01:03:01.727Z,95.61
2022-11-17T01:05:07.230Z,95.69
2022-11-17T01:07:10.721Z,95.70
2022-11-17T01:09:16.748Z,96.04
2022-11-17T01:11:20.716Z,95.72
2022-11-17T01:13:24.198Z,95.69
2022-11-17T01:15:27.754Z,95.64
2022-11-17T01:17:31.218Z,95.43
2022-11-17T01:19:34.639Z,95.98
2022-11-17T01:21:39.608Z,96.18
2022-11-17T01:23:44.989Z,95.94
2022-11-17T01:25:48.641Z,96.42
2022-11-17T01:27:52.081Z,96.39
2022-11-17T01:29:55.543Z,96.52
2022-11-17T01:31:59.006Z,96.97
2022-11-17T01:34:02.555Z,96.68
2022-11-17T01:36:08.513Z,97.02
2022-11-17T01:38:12.266Z,97.33
2022-11-17T01:40:16.300Z,97.25
2022-11-17T01:42:22.352Z,97.75
2022-11-17T01:44:59.771Z,97.81
2022-11-17T01:47:04.190Z,97.33
2022-11-17T01:49:14.127Z,97.62
2022-11-17T01:51:18.226Z,98.15
2022-11-17T01:53:24.444Z,97.27
2022-11-17T01:55:32.575Z,97.14
2022-11-17T01:57:40.761Z,97.21
2022-11-17T01:59:47.533Z,96.98
2022-11-17T02:01:56.600Z,96.97
2022-11-17T02:04:01.820Z,97.39
2022-11-17T02:06:09.608Z,97.05
2022-11-17T02:08:13.501Z,97.03
2022-11-17T02:10:18.821Z,97.29
2022-11-17T02:12:26.600Z,97.67
2022-11-17T02:14:29.999Z,97.41
2022-11-17T02:16:33.500Z,96.66
2022-11-17T02:18:37.029Z,96.91
2022-11-17T02:20:52.975Z,97.29
2022-11-17T02:23:33.108Z,97.16
2022-11-17T02:25:49.801Z,97.71
2022-11-17T02:28:18.080Z,97.63
2022-11-17T02:30:23.790Z,97.22
2022-11-17T02:32:33.807Z,97.49
2022-11-17T02:34:46.829Z,97.45
2022-11-17T02:36:57.763Z,97.71
2022-11-17T02:39:10.933Z,97.64
2022-11-17T02:41:23.072Z,97.86
2022-11-17T02:43:51.697Z,97.68
2022-11-17T02:46:00.094Z,97.69
2022-11-17T02:48:09.368Z,98.32
2022-11-17T02:50:14.318Z,98.17
2022-11-17T02:52:20.056Z,98.02
2022-11-17T02:54:25.751Z,97.95
2022-11-17T02:56:29.186Z,98.17
2022-11-17T02:58:33.970Z,98.48
2022-11-17T03:00:43.322Z,98.51
2022-11-17T03:03:09.256Z,98.59
2022-11-17T03:05:20.275Z,98.54
2022-11-17T03:07:38.574Z,98.85
2022-11-17T03:09:50.462Z,98.46
2022-11-17T03:12:02.821Z,98.01
2022-11-17T03:14:15.141Z,98.07
2022-11-17T03:16:28.536Z,98.04
2022-11-17T03:18:38.076Z,97.71
2022-11-17T03:20:46.723Z,97.69
2022-11-17T03:22:56.467Z,97.92
2022-11-17T03:25:03.786Z,97.79
2022-11-17T03:27:13.771Z,97.60
2022-11-17T03:29:22.482Z,97.25
2022-11-17T03:31:29.139Z,97.90
2022-11-17T03:33:33.873Z,97.64
2022-11-17T03:35:45.082Z,97.02
2022-11-17T03:37:55.643Z,96.78
2022-11-17T03:40:05.652Z,97.16
2022-11-17T03:42:14.800Z,96.89
2022-11-17T03:44:23.553Z,96.91
2022-11-17T03:46:28.634Z,96.59
2022-11-17T03:48:37.350Z,96.54
2022-11-17T03:50:46.926Z,96.46
2022-11-17T03:52:51.073Z,96.65
2022-11-17T03:54:54.770Z,96.98
2022-11-17T03:57:03.483Z,96.12
2022-11-17T03:59:13.541Z,96.54
2022-11-17T04:01:21.118Z,96.10
2022-11-17T04:03:24.746Z,96.09
2022-11-17T04:05:28.460Z,95.85
2022-11-17T04:07:32.203Z,95.98
2022-11-17T04:09:35.703Z,95.84
2022-11-17T04:11:56.609Z,95.65
2022-11-17T04:14:17.794Z,95.83
2022-11-17T04:16:22.725Z,96.14
2022-11-17T04:18:27.473Z,95.85
2022-11-17T04:20:36.039Z,96.06
2022-11-17T04:22:39.542Z,96.17
2022-11-17T04:24:42.943Z,96.36
2022-11-17T04:27:04.393Z,96.26
2022-11-17T04:29:06.827Z,96.02
2022-11-17T04:31:13.176Z,95.94
2022-11-17T04:33:18.061Z,96.44
2022-11-17T04:35:21.392Z,95.62
2022-11-17T04:37:24.808Z,95.99
2022-11-17T04:39:28.263Z,95.49
2022-11-17T04:41:49.301Z,95.37
2022-11-17T04:43:53.355Z,95.63
2022-11-17T04:46:00.070Z,95.22
2022-11-17T04:48:03.612Z,95.49
2022-11-17T04:50:09.595Z,95.78
2022-11-17T04:52:12.979Z,95.50
2022-11-17T04:54:18.535Z,95.77
2022-11-17T04:56:22.664Z,95.88
2022-11-17T04:58:26.214Z,95.58
2022-11-17T05:00:29.932Z,95.60
2022-11-17T05:02:33.468Z,94.91
2022-11-17T05:04:54.530Z,95.07
2022-11-17T05:06:59.403Z,94.54
2022-11-17T05:09:05.342Z,94.63
2022-11-17T05:11:23.544Z,94.00
2022-11-17T05:13:26.299Z,94.13
2022-11-17T05:15:43.588Z,94.32
2022-11-17T05:17:47.023Z,94.12
2022-11-17T05:19:50.429Z,93.69
2022-11-17T05:21:53.993Z,93.61
2022-11-17T05:23:58.299Z,94.10
2022-11-17T05:26:00.806Z,93.94
2022-11-17T05:28:04.272Z,93.65
2022-11-17T05:30:09.834Z,93.88
2022-11-17T05:32:13.401Z,93.97
2022-11-17T05:34:18.601Z,94.24
2022-11-17T05:36:23.168Z,94.92
2022-11-17T05:38:26.678Z,95.10
2022-11-17T05:40:31.487Z,95.49
2022-11-17T05:42:35.950Z,95.81
2022-11-17T05:44:40.012Z,96.14
2022-11-17T05:46:43.491Z,96.29
2022-11-17T05:48:48.775Z,96.77
2022-11-17T05:50:53.436Z,96.45
2022-11-17T05:52:56.892Z,96.68
2022-11-17T05:55:00.588Z,96.53
2022-11-17T05:57:09.917Z,96.94
2022-11-17T05:59:26.344Z,96.99
2022-11-17T06:01:34.462Z,97.13
2022-11-17T06:03:42.646Z,97.21
2022-11-17T06:05:46.222Z,97.55
2022-11-17T06:07:49.870Z,97.69
2022-11-17T06:09:53.569Z,97.69
2022-11-17T06:12:02.461Z,97.94
2022-11-17T06:14:10.492Z,97.47
2022-11-17T06:16:18.815Z,97.19
2022-11-17T06:18:28.322Z,97.76
2022-11-17T06:20:35.995Z,97.79
2022-11-17T06:22:41.860Z,98.28
2022-11-17T06:24:49.042Z,97.98
2022-11-17T06:26:52.901Z,98.28
2022-11-17T06:28:57.613Z,98.71
2022-11-17T06:31:03.475Z,99.08
2022-11-17T06:33:09.994Z,99.67
2022-11-17T06:35:16.388Z,100.00
2022-11-17T06:37:19.885Z,100.00
2022-11-17T06:39:23.332Z,100.00
2022-11-17T06:41:26.922Z,100.00
2022-11-17T06:43:30.224Z,100.00
2022-11-17T06:45:34.612Z,100.00
2022-11-17T06:47:39.770Z,100.00
2022-11-17T06:49:43.173Z,100.00
2022-11-17T06:51:46.591Z,100.00
2022-11-17T06:53:50.023Z,100.00
2022-11-17T06:56:01.242Z,100.00
2022-11-17T06:58:07.347Z,100.00
2022-11-17T07:00:12.381Z,100.00
2022-11-17T07:02:15.773Z,100.00
2022-11-17T07:04:20.829Z,100.00
2022-11-17T07:06:24.254Z,99.88
2022-11-17T07:08:27.738Z,100.00
2022-11-17T07:10:33.014Z,100.00
2022-11-17T07:12:36.486Z,100.00
2022-11-17T07:14:39.793Z,100.00
2022-11-17T07:16:43.782Z,100.00
2022-11-17T07:18:47.719Z,100.00
2022-11-17T07:20:52.439Z,100.00
2022-11-17T07:22:59.437Z,100.00
2022-11-17T07:25:02.817Z,99.76
2022-11-17T07:27:06.584Z,99.60
2022-11-17T07:29:09.957Z,99.58
2022-11-17T07:31:13.301Z,99.33
2022-11-17T07:33:16.629Z,99.09
2022-11-17T07:35:20.019Z,99.21
2022-11-17T07:37:24.787Z,98.67
2022-11-17T07:39:28.106Z,98.03
2022-11-17T07:41:32.030Z,97.67
2022-11-17T07:43:36.183Z,97.66
2022-11-17T07:45:39.701Z,96.57
2022-11-17T07:47:43.135Z,95.77
2022-11-17T07:49:46.514Z,94.25
2022-11-17T07:51:49.947Z,93.68
2022-11-17T07:53:55.122Z,93.03
2022-11-17T07:56:03.105Z,92.80
2022-11-17T07:58:06.509Z,90.73
2022-11-17T08:00:11.445Z,90.64
2022-11-17T08:02:17.563Z,88.99
2022-11-17T08:04:20.989Z,89.05
2022-11-17T08:06:24.939Z,88.36
2022-11-17T08:08:28.279Z,88.52
2022-11-17T08:10:33.416Z,88.27
2022-11-17T08:12:36.772Z,88.16
2022-11-17T08:14:40.163Z,88.33
2022-11-17T08:16:43.484Z,87.92
2022-11-17T08:18:52.011Z,87.32
2022-11-17T08:21:02.623Z,86.95
2022-11-17T08:23:06.011Z,87.29
2022-11-17T08:25:10.383Z,87.24
2022-11-17T08:27:15.125Z,87.43
2022-11-17T08:29:18.458Z,87.11
2022-11-17T08:31:21.813Z,86.59
2022-11-17T08:33:25.124Z,86.89
2022-11-17T08:35:32.973Z,86.90
2022-11-17T08:37:41.467Z,86.28
2022-11-17T08:39:44.894Z,86.66
2022-11-17T08:41:48.299Z,86.54
2022-11-17T08:43:53.023Z,86.69
2022-11-17T08:45:56.362Z,86.40
2022-11-17T08:47:59.870Z,86.35
2022-11-17T08:50:03.582Z,86.26
2022-11-17T08:52:06.949Z,85.50
2022-11-17T08:54:13.413Z,85.63
2022-11-17T08:56:16.990Z,85.35
2022-11-17T08:58:20.406Z,84.88
2022-11-17T09:00:25.081Z,84.72
2022-11-17T09:02:28.473Z,83.84
2022-11-17T09:04:31.898Z,84.01
2022-11-17T09:06:35.245Z,84.23
2022-11-17T09:08:45.718Z,83.88
2022-11-17T09:10:51.571Z,84.10
2022-11-17T09:12:56.343Z,83.91
2022-11-17T09:14:59.693Z,83.89
2022-11-17T09:17:04.512Z,83.52
2022-11-17T09:19:07.885Z,83.07
2022-11-17T09:21:12.626Z,83.11
2022-11-17T09:23:15.986Z,83.17
2022-11-17T09:25:19.486Z,82.92
2022-11-17T09:27:22.766Z,82.34
2022-11-17T09:29:26.114Z,82.44
2022-11-17T09:31:30.037Z,81.68
2022-11-17T09:33:34.911Z,81.09
2022-11-17T09:35:38.400Z,79.36
2022-11-17T09:37:41.692Z,79.69
2022-11-17T09:39:45.037Z,79.51
2022-11-17T09:41:50.896Z,79.67
2022-11-17T09:44:13.031Z,78.93
2022-11-17T09:46:20.603Z,79.37
2022-11-17T09:48:41.493Z,78.09
2022-11-17T09:50:47.001Z,78.06
2022-11-17T09:52:59.464Z,77.59
2022-11-17T09:55:10.964Z,78.02
2022-11-17T09:57:24.805Z,77.88
2022-11-17T09:59:30.113Z,77.15
2022-11-17T10:01:33.539Z,77.45
2022-11-17T10:03:44.928Z,77.60
2022-11-17T10:05:50.356Z,77.62
2022-11-17T10:07:55.967Z,77.72
2022-11-17T10:10:01.730Z,77.80
2022-11-17T10:12:17.295Z,78.07
2022-11-17T10:14:23.319Z,78.11
2022-11-17T10:16:26.702Z,78.11
2022-11-17T10:18:37.584Z,78.19
2022-11-17T10:20:43.930Z,76.61
2022-11-17T10:22:48.417Z,78.20
2022-11-17T10:24:55.354Z,78.18
2022-11-17T10:26:58.844Z,78.66
2022-11-17T10:29:12.328Z,78.42
2022-11-17T10:31:17.467Z,78.45
2022-11-17T10:33:36.073Z,77.58
2022-11-17T10:35:39.750Z,77.90
2022-11-17T10:37:53.196Z,77.38
2022-11-17T10:40:23.590Z,77.02
2022-11-17T10:42:28.985Z,76.64
2022-11-17T10:44:33.636Z,77.05
2022-11-17T10:46:57.643Z,76.79
2022-11-17T10:49:23.979Z,76.63
2022-11-17T10:51:29.545Z,74.96
2022-11-17T10:53:45.218Z,75.10
2022-11-17T10:55:55.588Z,74.88
2022-11-17T10:58:03.468Z,73.95
2022-11-17T11:00:23.388Z,74.23
2022-11-17T11:02:30.693Z,73.65
2022-11-17T11:04:36.037Z,73.46
2022-11-17T11:06:39.345Z,72.46
2022-11-17T11:08:52.353Z,72.85
2022-11-17T11:10:59.351Z,72.88
2022-11-17T11:13:10.204Z,73.32
2022-11-17T11:15:19.898Z,73.49
2022-11-17T11:17:23.241Z,73.33
2022-11-17T11:19:26.720Z,73.56
2022-11-17T11:21:51.539Z,73.74
2022-11-17T11:24:04.052Z,73.36
2022-11-17T11:26:18.121Z,72.43
2022-11-17T11:28:44.250Z,73.13
2022-11-17T11:31:00.185Z,72.94
2022-11-17T11:33:21.466Z,73.85
2022-11-17T11:36:00.317Z,73.18
2022-11-17T11:38:16.545Z,72.75
2022-11-17T11:40:28.192Z,72.87
2022-11-17T11:42:51.728Z,72.72
2022-11-17T11:45:14.269Z,72.89
2022-11-17T11:47:35.690Z,72.65
2022-11-17T11:49:44.368Z,72.33
2022-11-17T11:51:50.370Z,72.07
2022-11-17T11:53:58.605Z,72.51
2022-11-17T11:56:11.852Z,72.20
2022-11-17T11:58:23.218Z,72.03
2022-11-17T12:00:26.853Z,72.14
2022-11-17T12:02:38.415Z,71.44
2022-11-17T12:04:48.079Z,71.74
2022-11-17T12:06:56.789Z,71.80
2022-11-17T12:09:12.293Z,71.35
2022-11-17T12:11:32.001Z,70.80
2022-11-17T12:13:40.049Z,71.03
2022-11-17T12:15:47.089Z,70.55
2022-11-17T12:18:02.355Z,68.99
2022-11-17T12:20:26.887Z,68.72
2022-11-17T12:23:02.601Z,68.57
2022-11-17T12:25:17.063Z,68.57
2022-11-17T12:27:45.163Z,67.49
2022-11-17T12:29:48.487Z,67.53
2022-11-17T12:31:52.713Z,67.57
2022-11-17T12:34:24.379Z,67.20
2022-11-17T12:36:31.543Z,67.43
2022-11-17T12:38:42.544Z,67.20
2022-11-17T12:40:47.535Z,67.33
2022-11-17T12:43:22.808Z,67.52
2022-11-17T12:45:26.338Z,67.49
2022-11-17T12:47:32.559Z,66.89
2022-11-17T12:49:46.303Z,66.72
2022-11-17T12:51:56.133Z,66.64
2022-11-17T12:54:07.598Z,66.55
2022-11-17T12:56:28.661Z,66.20
2022-11-17T12:58:43.575Z,66.73
2022-11-17T13:00:56.721Z,66.86
2022-11-17T13:03:09.407Z,66.84
2022-11-17T13:05:18.801Z,66.78
2022-11-17T13:07:25.347Z,67.19
2022-11-17T13:09:30.721Z,66.91
2022-11-17T13:11:35.330Z,66.93
2022-11-17T13:13:45.479Z,67.32
2022-11-17T13:15:51.987Z,66.86
2022-11-17T13:17:55.524Z,67.04
2022-11-17T13:20:01.061Z,67.26
2022-11-17T13:22:07.424Z,67.07
2022-11-17T13:24:10.999Z,67.19
2022-11-17T13:26:21.393Z,67.09
2022-11-17T13:28:29.689Z,67.45
2022-11-17T13:30:34.476Z,67.52
2022-11-17T13:32:40.093Z,67.98
2022-11-17T13:34:48.512Z,68.33
2022-11-17T13:36:56.494Z,68.51
2022-11-17T13:39:01.309Z,67.98
2022-11-17T13:41:06.687Z,67.89
2022-11-17T13:43:13.815Z,68.46
2022-11-17T13:45:17.699Z,67.88
2022-11-17T13:47:29.633Z,67.96
2022-11-17T13:49:36.378Z,68.21
2022-11-17T13:51:40.013Z,67.99
2022-11-17T13:53:45.126Z,68.17
2022-11-17T13:55:48.767Z,67.84
2022-11-17T13:57:57.311Z,67.89
2022-11-17T14:00:02.197Z,67.44
2022-11-17T14:02:26.157Z,67.85
2022-11-17T14:04:29.896Z,67.67
2022-11-17T14:06:53.865Z,67.45
2022-11-17T14:09:06.108Z,67.57
2022-11-17T14:11:21.096Z,67.70
2022-11-17T14:13:30.184Z,68.02
2022-11-17T14:15:37.373Z,68.01
2022-11-17T14:17:42.610Z,68.27
2022-11-17T14:19:46.575Z,68.37
2022-11-17T14:21:59.302Z,68.53
2022-11-17T14:24:11.383Z,68.60
2022-11-17T14:26:20.120Z,68.53
2022-11-17T14:28:24.105Z,68.53
2022-11-17T14:30:27.772Z,68.68
2022-11-17T14:32:32.285Z,68.46
2022-11-17T14:34:36.966Z,68.61
2022-11-17T14:36:40.966Z,68.46
2022-11-17T14:38:44.963Z,68.06
2022-11-17T14:40:51.077Z,68.26
2022-11-17T14:42:54.438Z,67.82
2022-11-17T14:44:57.768Z,67.51
2022-11-17T14:47:01.096Z,67.29
2022-11-17T14:49:04.700Z,67.63
2022-11-17T14:51:09.588Z,67.37
2022-11-17T14:53:12.977Z,67.81
2022-11-17T14:55:16.585Z,67.75
2022-11-17T14:57:19.903Z,67.46
2022-11-17T14:59:23.286Z,67.46
2022-11-17T15:01:30.374Z,67.73
2022-11-17T15:03:33.705Z,67.88
2022-11-17T15:05:37.119Z,68.14
2022-11-17T15:07:42.503Z,68.08
2022-11-17T15:09:45.790Z,68.22
2022-11-17T15:11:49.562Z,68.10
2022-11-17T15:13:53.167Z,68.59
2022-11-17T15:16:02.781Z,68.24
2022-11-17T15:18:06.560Z,68.17
2022-11-17T15:20:10.860Z,68.09
2022-11-17T15:22:14.335Z,68.21
2022-11-17T15:24:19.042Z,68.10
2022-11-17T15:26:23.445Z,68.39
2022-11-17T15:28:30.477Z,68.63
2022-11-17T15:30:34.358Z,68.60
2022-11-17T15:32:37.798Z,68.83
2022-11-17T15:34:41.158Z,68.95
2022-11-17T15:36:44.455Z,69.27
2022-11-17T15:38:48.521Z,69.54
2022-11-17T15:40:55.572Z,69.53
2022-11-17T15:42:59.057Z,69.50
2022-11-17T15:45:02.375Z,69.65
2022-11-17T15:47:06.056Z,69.66
2022-11-17T15:49:09.531Z,69.57
2022-11-17T15:51:14.606Z,69.70
2022-11-17T15:53:17.902Z,69.81
2022-11-17T15:55:21.407Z,69.72
2022-11-17T15:57:26.062Z,69.59
2022-11-17T15:59:31.686Z,70.32
2022-11-17T16:01:36.660Z,70.40
2022-11-17T16:03:41.069Z,70.31
2022-11-17T16:05:44.461Z,70.60
2022-11-17T16:07:47.870Z,70.74
2022-11-17T16:09:51.221Z,70.82
2022-11-17T16:11:54.649Z,70.95
2022-11-17T16:14:00.613Z,71.08
2022-11-17T16:16:04.553Z,71.10
2022-11-17T16:18:07.849Z,71.70
2022-11-17T16:20:12.513Z,72.05
2022-11-17T16:22:15.963Z,72.63
2022-11-17T16:24:19.463Z,72.99
2022-11-17T16:26:25.325Z,72.95
2022-11-17T16:28:28.703Z,73.14
2022-11-17T16:30:35.555Z,73.30
2022-11-17T16:32:39.156Z,73.52
2022-11-17T16:34:43.523Z,73.68
2022-11-17T16:36:46.856Z,73.47
2022-11-17T16:39:00.780Z,73.80
2022-11-17T16:41:05.032Z,74.04
2022-11-17T16:43:10.969Z,74.11
2022-11-17T16:45:14.380Z,73.75
2022-11-17T16:47:19.741Z,73.97
2022-11-17T16:49:23.253Z,74.36
2022-11-17T16:51:26.556Z,74.72
2022-11-17T16:53:29.899Z,74.54
2022-11-17T16:55:35.126Z,75.03
2022-11-17T16:57:38.501Z,74.94
2022-11-17T16:59:41.939Z,75.48
2022-11-17T17:01:45.581Z,75.68
2022-11-17T17:03:50.520Z,76.01
2022-11-17T17:05:53.823Z,76.47
2022-11-17T17:07:57.675Z,77.01
2022-11-17T17:10:01.110Z,77.41
2022-11-17T17:12:04.730Z,77.62
2022-11-17T17:14:12.431Z,77.92
2022-11-17T17:16:17.437Z,78.02
2022-11-17T17:18:20.931Z,78.35
2022-11-17T17:20:25.650Z,78.58
2022-11-17T17:22:29.041Z,78.71
2022-11-17T17:24:32.643Z,78.38
2022-11-17T17:26:37.386Z,78.72
2022-11-17T17:28:43.797Z,78.98
2022-11-17T17:30:54.707Z,78.63
2022-11-17T17:32:58.072Z,78.96
2022-11-17T17:35:01.388Z,79.33
2022-11-17T17:37:06.024Z,79.23
2022-11-17T17:39:14.245Z,79.45
2022-11-17T17:41:19.159Z,79.52
2022-11-17T17:43:22.577Z,79.62
2022-11-17T17:45:25.880Z,79.51
2022-11-17T17:47:29.323Z,79.23
2022-11-17T17:49:32.612Z,79.58
2022-11-17T17:51:39.917Z,79.62
2022-11-17T17:53:44.836Z,79.96
2022-11-17T17:55:48.147Z,79.92
2022-11-17T17:57:54.748Z,80.14
2022-11-17T17:59:58.485Z,80.38
2022-11-17T18:02:02.593Z,80.32
2022-11-17T18:04:07.347Z,80.51
2022-11-17T18:06:12.939Z,80.51
2022-11-17T18:08:16.441Z,80.60
2022-11-17T18:10:21.125Z,80.67
2022-11-17T18:12:24.456Z,81.16
2022-11-17T18:14:27.856Z,81.11
2022-11-17T18:16:33.381Z,81.65
2022-11-17T18:18:37.534Z,81.52
2022-11-17T18:20:40.832Z,81.69
2022-11-17T18:22:44.158Z,82.10
2022-11-17T18:24:47.626Z,82.01
2022-11-17T18:26:52.275Z,82.01
2022-11-17T18:28:57.119Z,82.12
2022-11-17T18:31:03.176Z,82.13
2022-11-17T18:33:06.482Z,82.23
2022-11-17T18:35:10.185Z,82.51
2022-11-17T18:37:14.082Z,82.61
2022-11-17T18:39:17.753Z,82.72
2022-11-17T18:41:22.514Z,82.21
2022-11-17T18:43:30.652Z,82.36
2022-11-17T18:45:38.277Z,82.78
2022-11-17T18:47:41.727Z,82.98
2022-11-17T18:49:45.185Z,82.82
2022-11-17T18:51:48.662Z,83.18
2022-11-17T18:53:54.092Z,83.20
2022-11-17T18:56:02.023Z,83.29
2022-11-17T18:58:05.333Z,83.51
2022-11-17T19:00:11.616Z,83.62
2022-11-17T19:02:15.285Z,83.59
2022-11-17T19:04:18.723Z,84.07
2022-11-17T19:06:24.497Z,83.65
2022-11-17T19:08:29.779Z,83.82
2022-11-17T19:10:33.091Z,84.00
2022-11-17T19:12:36.485Z,84.20
2022-11-17T19:14:39.946Z,84.09
2022-11-17T19:16:45.336Z,83.68
2022-11-17T19:18:50.063Z,83.90
2022-11-17T19:20:53.402Z,83.83
2022-11-17T19:22:57.141Z,83.88
2022-11-17T19:25:00.433Z,83.56
2022-11-17T19:27:03.820Z,83.73
2022-11-17T19:29:15.545Z,83.79
2022-11-17T19:31:21.183Z,83.72
2022-11-17T19:33:25.889Z,83.88
2022-11-17T19:35:29.749Z,83.96
2022-11-17T19:37:33.080Z,83.79
2022-11-17T19:39:36.439Z,83.68
2022-11-17T19:41:40.079Z,83.78
2022-11-17T19:43:45.673Z,84.20
2022-11-17T19:45:49.247Z,84.28
2022-11-17T19:47:52.663Z,84.24
2022-11-17T19:49:57.311Z,83.93
2022-11-17T19:52:00.706Z,83.95
2022-11-17T19:54:05.907Z,84.30
2022-11-17T19:56:09.803Z,84.23
2022-11-17T19:58:13.124Z,83.71
2022-11-17T20:00:17.745Z,84.02
2022-11-17T20:02:21.040Z,84.21
2022-11-17T20:04:24.424Z,84.05
2022-11-17T20:06:31.933Z,83.91
2022-11-17T20:08:35.237Z,83.52
2022-11-17T20:10:38.516Z,83.49
2022-11-17T20:12:43.330Z,83.44
2022-11-17T20:14:47.212Z,83.11
2022-11-17T20:16:50.564Z,83.43
2022-11-17T20:18:55.549Z,83.21
2022-11-17T20:20:59.494Z,83.18
2022-11-17T20:23:04.173Z,83.38
2022-11-17T20:25:08.008Z,83.31
2022-11-17T20:27:11.452Z,83.09
2022-11-17T20:29:15.100Z,83.17
2022-11-17T20:31:21.073Z,83.46
2022-11-17T20:33:24.417Z,83.36
2022-11-17T20:35:28.112Z,83.22
2022-11-17T20:37:31.569Z,82.99
2022-11-17T20:39:36.301Z,83.06
2022-11-17T20:41:39.641Z,82.70
2022-11-17T20:43:42.972Z,83.03
2022-11-17T20:45:46.400Z,82.90
2022-11-17T20:47:50.001Z,82.89
2022-11-17T20:49:53.428Z,82.66
2022-11-17T20:51:56.850Z,83.28
2022-11-17T20:54:00.229Z,83.56
2022-11-17T20:56:07.161Z,84.41
2022-11-17T20:58:10.519Z,84.41
2022-11-17T21:00:14.797Z,84.68
2022-11-17T21:02:18.153Z,84.73
2022-11-17T21:04:21.475Z,85.00
2022-11-17T21:06:24.854Z,85.32
2022-11-17T21:08:30.826Z,85.21
2022-11-17T21:10:34.261Z,85.58
2022-11-17T21:12:38.895Z,85.91
2022-11-17T21:14:42.195Z,85.86
2022-11-17T21:16:46.518Z,86.09
2022-11-17T21:18:48.881Z,86.77
2022-11-17T21:20:52.634Z,86.72
2022-11-17T21:22:56.021Z,86.79
2022-11-17T21:24:59.314Z,86.79
2022-11-17T21:27:02.660Z,86.63
2022-11-17T21:29:07.367Z,86.70
2022-11-17T21:31:12.824Z,86.25
2022-11-17T21:33:16.157Z,85.98
2022-11-17T21:35:20.692Z,85.89
2022-11-17T21:37:24.229Z,85.55
2022-11-17T21:39:27.562Z,85.75
2022-11-17T21:41:35.150Z,85.29
2022-11-17T21:43:39.562Z,85.44
2022-11-17T21:45:44.291Z,85.55
2022-11-17T21:47:47.741Z,85.00
2022-11-17T21:49:51.147Z,85.71
2022-11-17T21:51:54.472Z,85.96
2022-11-17T21:53:59.506Z,86.14
2022-11-17T21:56:03.989Z,86.91
2022-11-17T21:58:07.284Z,87.13
2022-11-17T22:00:12.208Z,87.79
2022-11-17T22:02:16.864Z,87.46
2022-11-17T22:04:20.183Z,87.35
2022-11-17T22:06:25.552Z,86.90
2022-11-17T22:08:28.895Z,86.49
2022-11-17T22:10:32.275Z,86.97
2022-11-17T22:12:35.612Z,87.31
2022-11-17T22:14:38.921Z,87.60
2022-11-17T22:16:44.031Z,87.65
2022-11-17T22:18:48.730Z,87.92
2022-11-17T22:20:52.584Z,88.81
2022-11-17T22:22:57.282Z,88.76
2022-11-17T22:25:16.798Z,89.18
2022-11-17T22:27:26.292Z,89.55
2022-11-17T22:29:29.593Z,89.91
2022-11-17T22:31:33.336Z,90.04
2022-11-17T22:33:39.939Z,89.95
2022-11-17T22:35:45.237Z,89.61
2022-11-17T22:37:48.523Z,90.07
2022-11-17T22:39:51.832Z,90.28
2022-11-17T22:41:55.128Z,89.75
2022-11-17T22:43:59.579Z,90.62
2022-11-17T22:46:04.473Z,90.64
2022-11-17T22:48:08.365Z,89.87
2022-11-17T22:50:12.061Z,90.48
2022-11-17T22:52:16.705Z,90.04
2022-11-17T22:54:20.368Z,90.32
2022-11-17T22:56:23.693Z,90.42
2022-11-17T22:58:27.340Z,90.28
2022-11-17T23:00:32.765Z,90.44
2022-11-17T23:02:36.047Z,89.72
2022-11-17T23:04:39.370Z,89.90
2022-11-17T23:06:42.760Z,89.69
2022-11-17T23:08:47.471Z,89.34
2022-11-17T23:11:03.877Z,89.68
2022-11-17T23:13:14.094Z,90.04
2022-11-17T23:15:17.561Z,90.77
2022-11-17T23:17:21.200Z,90.57
2022-11-17T23:19:24.610Z,90.74
2022-11-17T23:21:27.977Z,91.09
2022-11-17T23:23:33.752Z,90.98
2022-11-17T23:25:38.411Z,91.11
2022-11-17T23:27:41.707Z,91.00
2022-11-17T23:29:45.023Z,91.68
2022-11-17T23:31:48.427Z,91.60
2022-11-17T23:33:51.757Z,90.81
2022-11-17T23:35:58.359Z,90.68
2022-11-17T23:38:01.732Z,90.62
2022-11-17T23:40:05.710Z,90.77
2022-11-17T23:42:10.403Z,91.15
2022-11-17T23:44:13.708Z,91.26
2022-11-17T23:46:19.123Z,91.44
2022-11-17T23:48:22.669Z,91.03
2022-11-17T23:50:26.333Z,91.46
2022-11-17T23:52:29.722Z,91.30
2022-11-17T23:54:32.991Z,91.38
2022-11-17T23:56:36.299Z,90.57
2022-11-17T23:58:41.479Z,90.63
